Latest Weather Observations for West Wyalong

IDN60801

Issued at 5:04 pm EDT Monday 26 January 2015 (issued every 30 minutes, with the page automatically refreshed every 10 minutes)

About weather observations | Map of weather stations | Latest weather observations for NSW | Other Formats
Station Details ID: 050017 Name: WEST WYALONG AIRPORT AWS Lat: -33.94 Lon: 147.20 Height: 257.0 m
Data from the previous 72 hours. | See also: Recent months for locations in New South Wales
Date/Time
EDT
Temp
°C
App
Temp
°C
Dew
Point
Rel
Hum
%
Delta-T
°C
Wind Press
QNH
hPa
Press
MSL
hPa
Rain
since 9 am
mm
Dir
 
Spd
km/h
Gust
km/h
Spd
kts
Gust
kts
26/05:00pm 27.5 22.4 3.2 21 12.2 SSW 19 32 10 17 1010.0 1008.5 0.0
26/04:30pm 27.6 23.9 4.6 23 11.9 SSW 13 24 7 13 1010.3 1008.8 0.0
26/04:00pm 27.7 23.2 4.1 22 12.1 SW 17 26 9 14 1010.6 1009.1 0.0
26/03:30pm 27.2 23.1 4.3 23 11.7 SW 15 28 8 15 1010.8 1009.3 0.0
26/03:00pm 26.2 21.5 3.4 23 11.4 S 17 28 9 15 1011.1 1009.6 0.0
26/02:30pm 26.7 21.6 3.2 22 11.7 WSW 19 26 10 14 1011.2 1009.7 0.0
26/02:00pm 26.3 22.4 3.5 23 11.4 S 13 24 7 13 1011.6 1010.1 0.0
26/01:30pm 25.5 21.1 2.9 23 11.1 SW 15 24 8 13 1011.8 1010.3 0.0
26/01:00pm 25.2 20.7 4.3 26 10.6 S 17 24 9 13 1012.0 1010.5 0.0
26/12:30pm 24.5 20.3 3.8 26 10.3 S 15 22 8 12 1012.4 1010.9 0.0
26/12:00pm 24.7 20.1 3.9 26 10.4 SW 17 24 9 13 1012.7 1011.2 0.0
26/11:30am 24.2 20.0 4.0 27 10.1 SSW 15 26 8 14 1012.8 1011.4 0.0
26/11:00am 23.4 18.8 3.9 28 9.7 S 17 26 9 14 1013.0 1011.5 0.0
26/10:30am 23.1 19.7 6.0 33 8.8 SSE 13 20 7 11 1013.3 1011.8 0.0
26/10:00am 21.7 18.1 5.2 34 8.3 S 13 17 7 9 1013.3 1011.8 0.0
26/09:30am 20.5 17.0 5.3 37 7.6 SSE 13 20 7 11 1013.4 1011.9 0.0
26/09:00am 19.1 16.0 5.6 41 6.7 SSW 11 15 6 8 1013.1 1011.6 0.0
26/08:30am 17.7 13.9 5.9 46 5.8 SSW 15 19 8 10 1013.2 1011.7 0.0
26/08:00am 16.4 13.0 6.0 50 5.1 SW 13 17 7 9 1013.0 1011.5 0.0
26/07:30am 15.1 12.5 5.9 54 4.5 SW 9 13 5 7 1012.7 1011.2 0.0
26/07:00am 13.5 10.4 5.7 59 3.7 SW 11 13 6 7 1012.4 1010.9 0.0
26/06:30am 12.7 9.9 5.1 60 3.6 SW 9 13 5 7 1012.0 1010.5 0.0
26/06:00am 12.8 10.0 5.0 59 3.7 SW 9 11 5 6 1011.6 1010.1 0.0
26/05:30am 13.3 10.5 5.0 57 3.9 SW 9 13 5 7 1011.1 1009.6 0.0
26/05:00am 14.0 10.8 4.9 54 4.3 SW 11 13 6 7 1010.9 1009.4 0.0
26/04:30am 14.9 11.2 4.3 49 5.0 WSW 13 17 7 9 1010.7 1009.2 0.0
26/04:00am 14.8 11.5 4.8 51 4.7 WSW 11 13 6 7 1010.8 1009.3 0.0
26/03:30am 14.8 11.5 4.8 51 4.7 SW 11 11 6 6 1010.6 1009.1 0.0
26/03:00am 15.6 11.9 4.3 47 5.3 WSW 13 15 7 8 1010.5 1009.0 0.0
26/02:30am 15.9 12.1 4.0 45 5.6 WSW 13 15 7 8 1010.4 1008.9 0.0
26/02:00am 16.9 12.6 3.2 40 6.4 WSW 15 17 8 9 1010.6 1009.1 0.0
26/01:30am 17.3 13.3 2.9 38 6.7 WSW 13 17 7 9 1010.7 1009.2 0.0
26/01:00am 17.5 13.6 3.4 39 6.6 WSW 13 15 7 8 1010.5 1009.0 0.0
26/12:30am 17.9 14.0 3.4 38 6.8 WSW 13 17 7 9 1010.4 1008.9 0.0
26/12:00am 18.5 14.6 3.6 37 7.1 WSW 13 15 7 8 1010.5 1009.0 0.0
 
Date/Time
EDT
Temp
°C
App
Temp
°C
Dew
Point
Rel
Hum
%
Delta-T
°C
Wind Press
QNH
hPa
Press
MSL
hPa
Rain
since 9 am
mm
Dir
 
Spd
km/h
Gust
km/h
Spd
kts
Gust
kts
25/11:30pm 19.0 15.2 4.0 37 7.2 WSW 13 17 7 9 1010.4 1008.9 0.0
25/11:00pm 19.4 15.6 4.0 36 7.4 WSW 13 17 7 9 1010.3 1008.8 0.0
25/10:30pm 20.1 16.4 4.6 36 7.6 SW 13 17 7 9 1010.3 1008.8 0.0
25/10:00pm 21.1 17.0 4.6 34 8.2 WSW 15 19 8 10 1010.1 1008.6 0.0
25/09:30pm 21.8 18.0 3.9 31 8.8 WSW 13 17 7 9 1009.9 1008.4 0.0
25/09:00pm 22.6 18.4 3.7 29 9.3 WSW 15 20 8 11 1009.4 1007.9 0.0
25/08:30pm 23.5 19.3 4.0 28 9.7 WSW 15 19 8 10 1009.1 1007.5 0.0
25/08:00pm 25.3 20.2 3.9 25 10.8 SW 20 30 11 16 1008.9 1007.3 0.0
25/07:30pm 26.5 21.1 4.3 24 11.3 WSW 22 30 12 16 1008.5 1007.0 0.0
25/07:00pm 27.2 21.1 4.9 24 11.6 SW 26 39 14 21 1008.0 1006.5 0.0
25/06:30pm 27.8 22.3 6.0 25 11.6 WSW 24 37 13 20 1007.7 1006.2 0.0
25/06:00pm 28.3 22.9 8.1 28 11.1 W 26 39 14 21 1007.4 1005.9 0.0
25/05:30pm 28.8 23.3 9.0 29 11.1 WSW 28 41 15 22 1007.2 1005.7 0.0
25/05:00pm 28.8 24.5 9.5 30 10.9 WSW 22 35 12 19 1007.0 1005.5 0.0
25/04:30pm 28.8 24.3 10.0 31 10.7 WSW 24 39 13 21 1006.9 1005.4 0.0
25/04:00pm 29.0 24.9 10.2 31 10.8 WSW 22 37 12 20 1006.9 1005.4 0.0
25/03:30pm 28.6 23.4 10.3 32 10.4 SW 28 35 15 19 1007.1 1005.6 0.0
25/03:00pm 28.4 24.2 11.0 34 10.1 SW 24 37 13 20 1007.3 1005.8 0.0
25/02:30pm 27.7 22.8 10.0 33 10.0 SW 26 37 14 20 1007.3 1005.8 0.0
25/02:00pm 27.9 23.9 11.9 37 9.4 WSW 24 35 13 19 1007.5 1006.0 0.0
25/01:30pm 27.3 22.8 10.1 34 9.7 SW 24 33 13 18 1007.6 1006.1 0.0
25/01:00pm 26.8 22.3 10.1 35 9.4 WSW 24 35 13 19 1007.7 1006.2 0.0
25/12:30pm 26.6 22.7 10.7 37 9.0 W 22 30 12 16 1007.7 1006.2 0.0
25/12:00pm 25.4 21.9 10.1 38 8.6 WSW 19 32 10 17 1007.8 1006.3 0.0
25/11:30am 25.2 21.7 11.0 41 8.1 SW 20 32 11 17 1007.9 1006.4 0.0
25/11:00am 24.3 19.7 9.5 39 8.2 SW 24 33 13 18 1007.8 1006.3 0.0
25/10:30am 23.8 19.5 9.4 40 7.9 SSW 22 32 12 17 1007.8 1006.3 0.0
25/10:00am 23.3 17.5 9.3 41 7.7 SW 30 39 16 21 1007.8 1006.3 0.0
25/09:30am 22.5 17.6 8.6 41 7.5 SSW 24 35 13 19 1007.8 1006.3 0.0
25/09:00am 22.6 16.5 8.3 40 7.7 SSW 30 41 16 22 1007.6 1006.1 0.0
25/08:30am 21.9 16.6 8.4 42 7.2 SSW 26 35 14 19 1007.4 1005.9 0.0
25/08:00am 20.7 16.3 9.0 47 6.3 SSW 22 33 12 18 1006.9 1005.4 0.0
25/07:30am 20.4 16.7 10.2 52 5.6 SSW 20 26 11 14 1006.5 1005.0 0.0
25/07:00am 19.7 16.5 11.2 58 4.7 SSW 19 28 10 15 1006.0 1004.5 0.0
25/06:30am 20.0 14.8 11.5 58 4.7 WSW 30 46 16 25 1005.4 1003.8 0.0
25/06:22am 20.6 16.2 12.8 61 4.5 WSW 28 46 15 25 1005.1 1003.5 0.0
25/06:00am 21.2 22.3 18.8 86 1.5 NW 11 17 6 9 1004.4 1002.9 0.0
25/05:30am 21.2 22.3 18.8 86 1.5 NNW 11 13 6 7 1004.0 1002.5 0.0
25/05:00am 21.5 22.1 18.7 84 1.8 NNW 13 17 7 9 1004.0 1002.5 0.0
25/04:30am 21.9 22.2 18.7 82 2.0 NNW 15 20 8 11 1004.4 1002.9 0.0
25/04:00am 22.1 23.0 18.5 80 2.3 NNW 11 19 6 10 1004.4 1002.9 0.0
25/03:30am 22.3 22.6 18.7 80 2.3 NNW 15 22 8 12 1004.5 1003.0 0.0
25/03:00am 22.5 23.1 18.5 78 2.5 NNW 13 19 7 10 1004.5 1003.0 0.0
25/02:30am 22.6 23.7 18.8 79 2.4 N 11 17 6 9 1004.6 1003.1 0.0
25/02:00am 22.6 22.6 19.0 80 2.3 NNE 17 22 9 12 1004.5 1003.0 0.0
25/01:30am 22.3 23.7 19.5 84 1.8 NNE 11 13 6 7 1004.8 1003.2 0.0
25/01:00am 22.3 23.8 19.7 85 1.7 NNE 11 15 6 8 1005.1 1003.5 0.0
25/12:30am 22.7 24.1 19.5 82 2.1 NNE 11 15 6 8 1005.5 1003.9 0.0
25/12:00am 22.8 23.8 19.4 81 2.2 NNE 13 17 7 9 1005.5 1003.9 0.0
 
Date/Time
EDT
Temp
°C
App
Temp
°C
Dew
Point
Rel
Hum
%
Delta-T
°C
Wind Press
QNH
hPa
Press
MSL
hPa
Rain
since 9 am
mm
Dir
 
Spd
km/h
Gust
km/h
Spd
kts
Gust
kts
24/11:30pm 22.9 24.5 19.1 79 2.4 NE 9 13 5 7 1005.6 1004.0 0.0
24/11:00pm 23.2 25.1 18.9 77 2.8 NE 7 13 4 7 1005.7 1004.1 0.0
24/10:30pm 23.7 23.6 18.8 74 3.1 NNE 17 20 9 11 1005.8 1004.2 0.0
24/10:00pm 24.1 23.5 18.5 71 3.6 N 19 26 10 14 1005.8 1004.2 0.0
24/09:30pm 24.4 23.8 18.8 71 3.6 NNE 20 28 11 15 1005.5 1003.9 0.0
24/09:00pm 25.7 25.0 18.6 65 4.6 NNE 20 28 11 15 1005.1 1003.5 0.0
24/08:30pm 26.8 27.8 19.4 64 4.8 NE 13 15 7 8 1004.5 1003.0 0.0
24/08:00pm 27.8 28.9 19.6 61 5.4 NE 13 17 7 9 1004.2 1002.7 0.0
24/07:30pm 29.6 31.8 17.4 47 7.8 ENE 2 7 1 4 1004.0 1002.5 0.0
24/07:00pm 29.8 31.6 17.3 47 8.0 ENE 4 9 2 5 1003.8 1002.3 0.0
24/06:30pm 30.2 32.0 17.3 46 8.3 NE 4 7 2 4 1003.6 1002.1 0.0
24/06:00pm 29.9 30.1 17.7 48 7.9 N 13 17 7 9 1003.6 1002.1 0.0
24/05:30pm 29.4 28.6 17.2 47 7.8 NNE 17 26 9 14 1003.8 1002.3 0.0
24/05:00pm 28.8 25.7 15.7 45 8.2 NNE 26 35 14 19 1004.2 1002.7 0.0
24/04:30pm 27.8 24.5 16.1 49 7.3 N 28 48 15 26 1005.0 1003.4 0.0
24/04:24pm 26.0 24.0 15.4 52 6.5 NNE 20 46 11 25 1005.4 1003.8 0.0
24/04:20pm 26.7 25.3 14.5 47 7.4 SSW 15 46 8 25 1005.6 1004.0 0.0
24/04:00pm 31.2 29.6 16.4 41 9.4 SW 20 28 11 15 1005.0 1003.4 0.0
24/03:30pm 32.2 30.0 18.8 45 8.8 SW 28 41 15 22 1004.6 1003.1 0.0
24/03:00pm 31.6 30.4 17.1 41 9.3 SW 19 26 10 14 1005.1 1003.5 0.0
24/02:30pm 31.1 29.9 18.5 47 8.2 SW 22 32 12 17 1005.0 1003.4 0.0
24/02:00pm 29.1 28.6 17.9 50 7.2 SW 17 24 9 13 1005.5 1003.9 0.0
24/01:30pm 30.4 29.4 17.5 46 8.3 SW 19 26 10 14 1005.7 1004.1 0.0
24/01:00pm 30.5 30.2 18.2 47 8.0 SW 17 20 9 11 1006.2 1004.7 0.0
24/12:30pm 30.8 31.9 18.8 48 7.9 WNW 11 17 6 9 1006.5 1005.0 0.0
24/12:00pm 29.8 30.9 18.9 52 7.1 WNW 11 15 6 8 1006.7 1005.2 0.0
24/11:30am 27.5 29.6 19.3 61 5.4 NNW 7 13 4 7 1007.0 1005.5 0.0
24/11:00am 28.0 28.3 18.7 57 6.0 N 15 20 8 11 1007.0 1005.5 0.0
24/10:30am 27.3 27.7 19.1 61 5.3 N 15 20 8 11 1007.0 1005.5 0.0
24/10:00am 27.0 27.2 18.6 60 5.4 N 15 26 8 14 1007.0 1005.5 0.0
24/09:30am 26.2 26.0 18.6 63 4.9 N 17 24 9 13 1006.9 1005.4 0.0
24/09:00am 26.3 26.1 18.4 61 5.1 N 17 26 9 14 1006.7 1005.2 0.0
24/08:30am 25.5 25.8 18.7 66 4.4 N 15 20 8 11 1006.7 1005.2 0.0
24/08:00am 25.0 24.4 18.4 66 4.2 NNE 19 28 10 15 1006.6 1005.1 0.0
24/07:30am 24.0 23.2 18.4 71 3.6 NNE 20 28 11 15 1006.5 1005.0 0.0
24/07:00am 24.1 24.0 18.7 72 3.5 NNE 17 22 9 12 1006.4 1004.9 0.0
24/06:30am 23.8 23.3 18.7 73 3.3 NNE 19 24 10 13 1006.2 1004.7 0.0
24/06:00am 24.0 23.8 18.6 72 3.5 N 17 22 9 12 1006.1 1004.6 0.0
24/05:30am 24.5 23.9 18.4 69 3.9 NNE 19 26 10 14 1005.8 1004.2 0.0
24/05:00am 24.6 24.8 18.5 69 3.9 NNE 15 20 8 11 1005.8 1004.2 0.0
24/04:30am 25.0 25.6 18.7 68 4.0 NNE 13 17 7 9 1005.9 1004.4 0.0
24/04:00am 25.3 25.6 18.7 67 4.3 NNE 15 19 8 10 1006.0 1004.5 0.0
24/03:30am 25.5 26.0 18.4 65 4.5 NNE 13 19 7 10 1006.4 1004.9 0.0
24/03:00am 25.9 26.4 18.3 63 4.9 NNE 13 15 7 8 1006.4 1004.9 0.0
24/02:30am 26.0 26.8 18.2 62 5.0 NNE 11 15 6 8 1006.4 1004.9 0.0
24/02:00am 26.2 26.1 17.0 57 5.8 ENE 13 17 7 9 1006.6 1005.1 0.0
24/01:30am 26.0 26.0 17.1 58 5.6 NE 13 15 7 8 1006.9 1005.4 0.0
24/01:00am 25.8 26.0 17.7 61 5.1 NNE 13 17 7 9 1006.9 1005.4 0.0
24/12:30am 25.9 26.9 17.8 61 5.1 E 9 11 5 6 1006.7 1005.2 0.0
24/12:00am 26.1 27.2 18.0 61 5.2 SSW 9 11 5 6 1006.6 1005.1 0.0
 
Date/Time
EDT
Temp
°C
App
Temp
°C
Dew
Point
Rel
Hum
%
Delta-T
°C
Wind Press
QNH
hPa
Press
MSL
hPa
Rain
since 9 am
mm
Dir
 
Spd
km/h
Gust
km/h
Spd
kts
Gust
kts
23/11:30pm 26.6 27.1 17.4 57 5.8 S 11 15 6 8 1006.6 1005.1 0.0
23/11:00pm 27.7 25.5 16.9 51 6.8 S 24 33 13 18 1006.7 1005.2 0.0
23/10:30pm 27.8 24.6 17.3 52 6.7 SSW 30 44 16 24 1006.5 1005.0 0.0
23/10:18pm 28.0 26.8 17.5 52 6.7 SW 20 37 11 20 1006.4 1004.9 0.0
23/10:00pm 28.9 29.6 17.1 49 7.5 N 9 11 5 6 1005.4 1003.8 0.0
23/09:30pm 29.4 30.4 16.9 47 7.9 NNE 7 7 4 4 1005.1 1003.5 0.0
23/09:00pm 30.2 31.1 16.2 42 8.8 NNE 6 7 3 4 1004.9 1003.3 0.0
23/08:30pm 31.1 31.6 15.5 39 9.7 NE 7 9 4 5 1004.6 1003.1 0.0
23/08:00pm 33.6 33.8 14.1 30 12.1 NE 6 11 3 6 1004.4 1002.9 0.0
23/07:30pm 34.5 33.8 13.3 27 13.0 N 9 11 5 6 1004.2 1002.7 0.0
23/07:00pm 35.4 35.7 14.6 28 13.1 WNW 6 11 3 6 1003.9 1002.4 0.0
23/06:30pm 35.8 35.5 14.4 27 13.4 W 9 13 5 7 1003.7 1002.2 0.0
23/06:00pm 35.4 34.8 13.5 26 13.5 SW 9 15 5 8 1003.8 1002.3 0.0
23/05:30pm 36.2 35.7 14.8 28 13.5 WSW 11 15 6 8 1004.0 1002.5 0.0

Other Formats:

Comma delimited format used in spreadsheet applications
http://www.bom.gov.au/fwo/IDN60801/IDN60801.95709.axf

JavaScript Object Notation format (JSON) in row-major order
http://www.bom.gov.au/fwo/IDN60801/IDN60801.95709.json